sensor_id;sensor_type;location;lat;lon;timestamp;P1;durP1;ratioP1;P2;durP2;ratioP2
36205;SDS011;22242;48.796;9.930;2024-02-26T00:01:54;2.70;;;1.70;;
36205;SDS011;22242;48.796;9.930;2024-02-26T00:04:21;2.17;;;1.70;;
36205;SDS011;22242;48.796;9.930;2024-02-26T00:06:48;1.20;;;1.10;;
36205;SDS011;22242;48.796;9.930;2024-02-26T00:09:16;2.35;;;1.25;;
36205;SDS011;22242;48.796;9.930;2024-02-26T00:11:43;1.73;;;1.60;;
36205;SDS011;22242;48.796;9.930;2024-02-26T00:14:09;2.72;;;1.88;;
36205;SDS011;22242;48.796;9.930;2024-02-26T00:16:38;2.72;;;2.00;;
36205;SDS011;22242;48.796;9.930;2024-02-26T00:19:06;2.78;;;2.10;;
36205;SDS011;22242;48.796;9.930;2024-02-26T00:21:33;3.20;;;2.08;;
36205;SDS011;22242;48.796;9.930;2024-02-26T00:24:00;2.58;;;2.20;;
36205;SDS011;22242;48.796;9.930;2024-02-26T00:26:26;3.75;;;2.15;;
36205;SDS011;22242;48.796;9.930;2024-02-26T00:28:53;2.53;;;1.92;;
36205;SDS011;22242;48.796;9.930;2024-02-26T00:31:20;3.28;;;2.08;;
36205;SDS011;22242;48.796;9.930;2024-02-26T00:33:48;3.13;;;1.98;;
36205;SDS011;22242;48.796;9.930;2024-02-26T00:36:15;3.00;;;2.05;;
36205;SDS011;22242;48.796;9.930;2024-02-26T00:38:43;3.20;;;1.90;;
36205;SDS011;22242;48.796;9.930;2024-02-26T00:41:15;3.58;;;2.10;;
36205;SDS011;22242;48.796;9.930;2024-02-26T00:43:42;4.60;;;1.90;;
36205;SDS011;22242;48.796;9.930;2024-02-26T00:46:09;1.95;;;1.67;;
36205;SDS011;22242;48.796;9.930;2024-02-26T00:48:36;3.58;;;1.80;;
36205;SDS011;22242;48.796;9.930;2024-02-26T00:51:04;3.45;;;1.88;;
36205;SDS011;22242;48.796;9.930;2024-02-26T00:53:32;1.92;;;1.58;;
36205;SDS011;22242;48.796;9.930;2024-02-26T00:55:59;2.85;;;2.08;;
36205;SDS011;22242;48.796;9.930;2024-02-26T00:58:26;3.70;;;2.00;;
36205;SDS011;22242;48.796;9.930;2024-02-26T01:00:53;2.65;;;1.58;;
36205;SDS011;22242;48.796;9.930;2024-02-26T01:03:20;2.20;;;1.70;;
36205;SDS011;22242;48.796;9.930;2024-02-26T01:05:47;2.55;;;1.55;;
36205;SDS011;22242;48.796;9.930;2024-02-26T01:08:15;2.75;;;1.70;;
36205;SDS011;22242;48.796;9.930;2024-02-26T01:10:42;3.63;;;1.90;;
36205;SDS011;22242;48.796;9.930;2024-02-26T01:13:09;1.50;;;1.30;;
36205;SDS011;22242;48.796;9.930;2024-02-26T01:15:36;2.53;;;1.70;;
36205;SDS011;22242;48.796;9.930;2024-02-26T01:18:02;2.45;;;1.88;;
36205;SDS011;22242;48.796;9.930;2024-02-26T01:20:29;2.55;;;1.63;;
36205;SDS011;22242;48.796;9.930;2024-02-26T01:22:56;1.83;;;1.40;;
36205;SDS011;22242;48.796;9.930;2024-02-26T01:25:24;2.10;;;1.90;;
36205;SDS011;22242;48.796;9.930;2024-02-26T01:27:52;2.42;;;1.83;;
36205;SDS011;22242;48.796;9.930;2024-02-26T01:30:19;3.53;;;1.95;;
36205;SDS011;22242;48.796;9.930;2024-02-26T01:32:45;2.13;;;1.67;;
36205;SDS011;22242;48.796;9.930;2024-02-26T01:35:12;3.28;;;1.70;;
36205;SDS011;22242;48.796;9.930;2024-02-26T01:37:39;3.50;;;1.77;;
36205;SDS011;22242;48.796;9.930;2024-02-26T01:40:07;2.95;;;1.98;;
36205;SDS011;22242;48.796;9.930;2024-02-26T01:42:39;2.25;;;1.80;;
36205;SDS011;22242;48.796;9.930;2024-02-26T01:45:06;2.15;;;1.65;;
36205;SDS011;22242;48.796;9.930;2024-02-26T01:50:07;2.33;;;1.73;;
36205;SDS011;22242;48.796;9.930;2024-02-26T01:52:34;3.08;;;1.92;;
36205;SDS011;22242;48.796;9.930;2024-02-26T01:55:01;2.40;;;1.90;;
36205;SDS011;22242;48.796;9.930;2024-02-26T01:57:28;2.58;;;1.83;;
36205;SDS011;22242;48.796;9.930;2024-02-26T01:59:57;2.03;;;1.83;;
36205;SDS011;22242;48.796;9.930;2024-02-26T02:02:24;2.40;;;1.80;;
36205;SDS011;22242;48.796;9.930;2024-02-26T02:04:51;3.20;;;1.70;;
36205;SDS011;22242;48.796;9.930;2024-02-26T02:07:18;2.65;;;1.80;;
36205;SDS011;22242;48.796;9.930;2024-02-26T02:09:46;3.28;;;2.00;;
36205;SDS011;22242;48.796;9.930;2024-02-26T02:12:13;3.10;;;1.73;;
36205;SDS011;22242;48.796;9.930;2024-02-26T02:14:40;2.97;;;2.10;;
36205;SDS011;22242;48.796;9.930;2024-02-26T02:17:08;4.05;;;2.47;;
36205;SDS011;22242;48.796;9.930;2024-02-26T02:19:35;3.85;;;2.05;;
36205;SDS011;22242;48.796;9.930;2024-02-26T02:22:04;3.58;;;2.10;;
36205;SDS011;22242;48.796;9.930;2024-02-26T02:24:31;2.35;;;1.98;;
36205;SDS011;22242;48.796;9.930;2024-02-26T02:26:57;3.35;;;2.25;;
36205;SDS011;22242;48.796;9.930;2024-02-26T02:29:25;1.83;;;1.48;;
36205;SDS011;22242;48.796;9.930;2024-02-26T02:31:52;2.65;;;1.80;;
36205;SDS011;22242;48.796;9.930;2024-02-26T02:34:20;3.28;;;2.05;;
36205;SDS011;22242;48.796;9.930;2024-02-26T02:36:48;4.00;;;2.10;;
36205;SDS011;22242;48.796;9.930;2024-02-26T02:39:17;2.97;;;2.00;;
36205;SDS011;22242;48.796;9.930;2024-02-26T02:41:44;1.98;;;1.77;;
36205;SDS011;22242;48.796;9.930;2024-02-26T02:44:10;3.10;;;1.98;;
36205;SDS011;22242;48.796;9.930;2024-02-26T02:46:38;2.58;;;2.03;;
36205;SDS011;22242;48.796;9.930;2024-02-26T02:49:07;1.92;;;1.35;;
36205;SDS011;22242;48.796;9.930;2024-02-26T02:51:35;2.67;;;1.55;;
36205;SDS011;22242;48.796;9.930;2024-02-26T02:54:02;2.90;;;1.33;;
36205;SDS011;22242;48.796;9.930;2024-02-26T02:56:30;3.65;;;1.90;;
36205;SDS011;22242;48.796;9.930;2024-02-26T02:58:57;1.50;;;1.40;;
36205;SDS011;22242;48.796;9.930;2024-02-26T03:01:24;2.40;;;1.63;;
36205;SDS011;22242;48.796;9.930;2024-02-26T03:03:51;3.25;;;1.58;;
36205;SDS011;22242;48.796;9.930;2024-02-26T03:06:18;2.00;;;1.70;;
36205;SDS011;22242;48.796;9.930;2024-02-26T03:08:46;3.00;;;1.67;;
36205;SDS011;22242;48.796;9.930;2024-02-26T03:11:13;2.58;;;1.60;;
36205;SDS011;22242;48.796;9.930;2024-02-26T03:13:41;3.92;;;2.28;;
36205;SDS011;22242;48.796;9.930;2024-02-26T03:16:09;1.65;;;1.35;;
36205;SDS011;22242;48.796;9.930;2024-02-26T03:18:38;2.72;;;1.38;;
36205;SDS011;22242;48.796;9.930;2024-02-26T03:21:05;1.65;;;1.10;;
36205;SDS011;22242;48.796;9.930;2024-02-26T03:23:31;1.48;;;1.00;;
36205;SDS011;22242;48.796;9.930;2024-02-26T03:26:01;2.25;;;1.30;;
36205;SDS011;22242;48.796;9.930;2024-02-26T03:28:28;1.67;;;1.40;;
36205;SDS011;22242;48.796;9.930;2024-02-26T03:30:57;1.90;;;1.13;;
36205;SDS011;22242;48.796;9.930;2024-02-26T03:33:24;2.05;;;1.58;;
36205;SDS011;22242;48.796;9.930;2024-02-26T03:35:51;2.72;;;1.10;;
36205;SDS011;22242;48.796;9.930;2024-02-26T03:38:18;1.27;;;1.15;;
36205;SDS011;22242;48.796;9.930;2024-02-26T03:40:45;1.55;;;1.10;;
36205;SDS011;22242;48.796;9.930;2024-02-26T03:43:11;2.30;;;1.40;;
36205;SDS011;22242;48.796;9.930;2024-02-26T03:45:38;1.50;;;1.35;;
36205;SDS011;22242;48.796;9.930;2024-02-26T03:48:07;1.80;;;1.10;;
36205;SDS011;22242;48.796;9.930;2024-02-26T03:50:34;2.38;;;1.45;;
36205;SDS011;22242;48.796;9.930;2024-02-26T03:53:01;1.50;;;1.40;;
36205;SDS011;22242;48.796;9.930;2024-02-26T03:55:28;1.48;;;1.10;;
36205;SDS011;22242;48.796;9.930;2024-02-26T03:57:54;1.85;;;1.30;;
36205;SDS011;22242;48.796;9.930;2024-02-26T04:00:22;2.13;;;1.40;;
36205;SDS011;22242;48.796;9.930;2024-02-26T04:02:50;1.35;;;1.00;;
36205;SDS011;22242;48.796;9.930;2024-02-26T04:05:18;1.50;;;1.33;;
36205;SDS011;22242;48.796;9.930;2024-02-26T04:07:45;1.30;;;1.10;;
36205;SDS011;22242;48.796;9.930;2024-02-26T04:10:12;1.52;;;1.23;;
36205;SDS011;22242;48.796;9.930;2024-02-26T04:12:40;2.47;;;1.30;;
36205;SDS011;22242;48.796;9.930;2024-02-26T04:15:07;2.00;;;1.33;;
36205;SDS011;22242;48.796;9.930;2024-02-26T04:17:35;1.70;;;1.20;;
36205;SDS011;22242;48.796;9.930;2024-02-26T04:20:03;2.22;;;1.70;;
36205;SDS011;22242;48.796;9.930;2024-02-26T04:22:33;2.55;;;1.42;;
36205;SDS011;22242;48.796;9.930;2024-02-26T04:25:00;2.63;;;1.40;;
36205;SDS011;22242;48.796;9.930;2024-02-26T04:27:26;2.80;;;1.27;;
36205;SDS011;22242;48.796;9.930;2024-02-26T04:29:53;1.85;;;1.52;;
36205;SDS011;22242;48.796;9.930;2024-02-26T04:32:20;3.13;;;1.70;;
36205;SDS011;22242;48.796;9.930;2024-02-26T04:34:47;1.50;;;1.40;;
36205;SDS011;22242;48.796;9.930;2024-02-26T04:37:14;2.42;;;1.75;;
36205;SDS011;22242;48.796;9.930;2024-02-26T04:39:42;6.35;;;3.00;;
36205;SDS011;22242;48.796;9.930;2024-02-26T04:42:09;5.13;;;3.53;;
36205;SDS011;22242;48.796;9.930;2024-02-26T04:44:36;3.03;;;1.90;;
36205;SDS011;22242;48.796;9.930;2024-02-26T04:47:03;2.55;;;2.13;;
36205;SDS011;22242;48.796;9.930;2024-02-26T04:49:29;2.75;;;1.73;;
36205;SDS011;22242;48.796;9.930;2024-02-26T04:51:56;1.60;;;1.42;;
36205;SDS011;22242;48.796;9.930;2024-02-26T04:57:09;2.83;;;1.42;;
36205;SDS011;22242;48.796;9.930;2024-02-26T04:59:36;1.67;;;1.20;;
36205;SDS011;22242;48.796;9.930;2024-02-26T05:02:03;1.67;;;1.40;;
36205;SDS011;22242;48.796;9.930;2024-02-26T05:04:30;1.55;;;1.30;;
36205;SDS011;22242;48.796;9.930;2024-02-26T05:06:57;4.05;;;2.10;;
36205;SDS011;22242;48.796;9.930;2024-02-26T05:09:23;1.75;;;1.45;;
36205;SDS011;22242;48.796;9.930;2024-02-26T05:11:50;1.17;;;1.08;;
36205;SDS011;22242;48.796;9.930;2024-02-26T05:14:19;1.58;;;1.02;;
36205;SDS011;22242;48.796;9.930;2024-02-26T05:16:46;1.73;;;1.40;;
36205;SDS011;22242;48.796;9.930;2024-02-26T05:19:13;2.65;;;1.67;;
36205;SDS011;22242;48.796;9.930;2024-02-26T05:21:40;1.88;;;1.40;;
36205;SDS011;22242;48.796;9.930;2024-02-26T05:24:07;1.90;;;1.45;;
36205;SDS011;22242;48.796;9.930;2024-02-26T05:26:34;1.85;;;1.40;;
36205;SDS011;22242;48.796;9.930;2024-02-26T05:29:01;2.28;;;1.42;;
36205;SDS011;22242;48.796;9.930;2024-02-26T05:31:29;1.50;;;1.20;;
36205;SDS011;22242;48.796;9.930;2024-02-26T05:33:56;3.22;;;1.23;;
36205;SDS011;22242;48.796;9.930;2024-02-26T05:36:23;5.38;;;2.55;;
36205;SDS011;22242;48.796;9.930;2024-02-26T05:38:51;3.88;;;2.25;;
36205;SDS011;22242;48.796;9.930;2024-02-26T05:41:18;0.90;;;0.90;;
36205;SDS011;22242;48.796;9.930;2024-02-26T05:43:48;2.45;;;1.23;;
36205;SDS011;22242;48.796;9.930;2024-02-26T05:46:16;1.20;;;1.10;;
36205;SDS011;22242;48.796;9.930;2024-02-26T05:48:44;1.90;;;1.60;;
36205;SDS011;22242;48.796;9.930;2024-02-26T05:51:12;2.08;;;1.27;;
36205;SDS011;22242;48.796;9.930;2024-02-26T05:53:38;1.65;;;1.48;;
36205;SDS011;22242;48.796;9.930;2024-02-26T05:56:06;1.50;;;1.40;;
36205;SDS011;22242;48.796;9.930;2024-02-26T05:58:33;1.80;;;1.33;;
36205;SDS011;22242;48.796;9.930;2024-02-26T06:01:00;1.83;;;1.42;;
36205;SDS011;22242;48.796;9.930;2024-02-26T06:03:27;2.50;;;1.15;;
36205;SDS011;22242;48.796;9.930;2024-02-26T06:05:55;2.58;;;1.10;;
36205;SDS011;22242;48.796;9.930;2024-02-26T06:08:22;1.83;;;1.38;;
36205;SDS011;22242;48.796;9.930;2024-02-26T06:10:49;0.88;;;0.85;;
36205;SDS011;22242;48.796;9.930;2024-02-26T06:13:15;2.28;;;1.10;;
36205;SDS011;22242;48.796;9.930;2024-02-26T06:15:42;1.42;;;1.30;;
36205;SDS011;22242;48.796;9.930;2024-02-26T06:18:09;1.75;;;1.23;;
36205;SDS011;22242;48.796;9.930;2024-02-26T06:20:36;1.85;;;1.33;;
36205;SDS011;22242;48.796;9.930;2024-02-26T06:23:04;1.38;;;1.00;;
36205;SDS011;22242;48.796;9.930;2024-02-26T06:25:32;1.50;;;1.38;;
36205;SDS011;22242;48.796;9.930;2024-02-26T06:27:59;1.88;;;1.40;;
36205;SDS011;22242;48.796;9.930;2024-02-26T06:30:25;2.28;;;1.50;;
36205;SDS011;22242;48.796;9.930;2024-02-26T06:32:52;5.15;;;1.77;;
36205;SDS011;22242;48.796;9.930;2024-02-26T06:35:19;7.63;;;3.83;;
36205;SDS011;22242;48.796;9.930;2024-02-26T06:37:46;3.13;;;1.88;;
36205;SDS011;22242;48.796;9.930;2024-02-26T06:40:17;2.75;;;1.67;;
36205;SDS011;22242;48.796;9.930;2024-02-26T06:42:43;3.50;;;2.00;;
36205;SDS011;22242;48.796;9.930;2024-02-26T06:45:10;4.68;;;2.90;;
36205;SDS011;22242;48.796;9.930;2024-02-26T06:47:37;3.05;;;2.30;;
36205;SDS011;22242;48.796;9.930;2024-02-26T06:50:04;5.82;;;4.10;;
36205;SDS011;22242;48.796;9.930;2024-02-26T06:52:31;6.00;;;3.03;;
36205;SDS011;22242;48.796;9.930;2024-02-26T06:54:58;3.80;;;2.63;;
36205;SDS011;22242;48.796;9.930;2024-02-26T06:57:26;5.50;;;2.70;;
36205;SDS011;22242;48.796;9.930;2024-02-26T06:59:53;2.28;;;2.08;;
36205;SDS011;22242;48.796;9.930;2024-02-26T07:02:20;3.75;;;2.13;;
36205;SDS011;22242;48.796;9.930;2024-02-26T07:04:47;3.47;;;2.13;;
36205;SDS011;22242;48.796;9.930;2024-02-26T07:07:13;6.60;;;2.88;;
36205;SDS011;22242;48.796;9.930;2024-02-26T07:09:43;5.88;;;2.88;;
36205;SDS011;22242;48.796;9.930;2024-02-26T07:12:09;5.28;;;2.92;;
36205;SDS011;22242;48.796;9.930;2024-02-26T07:14:38;4.43;;;3.05;;
36205;SDS011;22242;48.796;9.930;2024-02-26T07:17:04;6.60;;;3.17;;
36205;SDS011;22242;48.796;9.930;2024-02-26T07:19:31;5.15;;;3.05;;
36205;SDS011;22242;48.796;9.930;2024-02-26T07:21:58;3.75;;;2.45;;
36205;SDS011;22242;48.796;9.930;2024-02-26T07:24:26;4.30;;;2.70;;
36205;SDS011;22242;48.796;9.930;2024-02-26T07:26:53;3.20;;;2.10;;
36205;SDS011;22242;48.796;9.930;2024-02-26T07:29:20;2.38;;;1.95;;
36205;SDS011;22242;48.796;9.930;2024-02-26T07:31:48;4.32;;;2.20;;
36205;SDS011;22242;48.796;9.930;2024-02-26T07:34:15;3.20;;;1.90;;
36205;SDS011;22242;48.796;9.930;2024-02-26T07:36:42;1.98;;;1.77;;
36205;SDS011;22242;48.796;9.930;2024-02-26T07:39:09;2.60;;;1.85;;
36205;SDS011;22242;48.796;9.930;2024-02-26T07:41:36;4.25;;;1.80;;
36205;SDS011;22242;48.796;9.930;2024-02-26T07:44:04;5.25;;;2.45;;
36205;SDS011;22242;48.796;9.930;2024-02-26T07:46:30;3.92;;;2.35;;
36205;SDS011;22242;48.796;9.930;2024-02-26T07:48:59;5.28;;;3.15;;
36205;SDS011;22242;48.796;9.930;2024-02-26T07:51:25;2.40;;;1.63;;
36205;SDS011;22242;48.796;9.930;2024-02-26T07:53:52;1.67;;;1.50;;
36205;SDS011;22242;48.796;9.930;2024-02-26T07:56:19;2.72;;;1.92;;
36205;SDS011;22242;48.796;9.930;2024-02-26T07:58:46;3.60;;;1.85;;
36205;SDS011;22242;48.796;9.930;2024-02-26T08:01:13;4.10;;;3.22;;
36205;SDS011;22242;48.796;9.930;2024-02-26T08:03:40;3.15;;;2.35;;
36205;SDS011;22242;48.796;9.930;2024-02-26T08:06:09;4.32;;;2.80;;
36205;SDS011;22242;48.796;9.930;2024-02-26T08:08:35;4.00;;;2.75;;
36205;SDS011;22242;48.796;9.930;2024-02-26T08:11:02;2.75;;;2.17;;
36205;SDS011;22242;48.796;9.930;2024-02-26T08:13:29;4.00;;;2.50;;
36205;SDS011;22242;48.796;9.930;2024-02-26T08:15:56;2.55;;;1.67;;
36205;SDS011;22242;48.796;9.930;2024-02-26T08:18:24;2.28;;;1.95;;
36205;SDS011;22242;48.796;9.930;2024-02-26T08:20:50;56.45;;;32.42;;
36205;SDS011;22242;48.796;9.930;2024-02-26T08:23:19;37.88;;;21.30;;
36205;SDS011;22242;48.796;9.930;2024-02-26T08:25:45;7.75;;;5.32;;
36205;SDS011;22242;48.796;9.930;2024-02-26T08:28:13;3.88;;;2.03;;
36205;SDS011;22242;48.796;9.930;2024-02-26T08:30:39;2.83;;;2.53;;
36205;SDS011;22242;48.796;9.930;2024-02-26T08:33:06;3.72;;;2.45;;
36205;SDS011;22242;48.796;9.930;2024-02-26T08:35:33;2.58;;;2.28;;
36205;SDS011;22242;48.796;9.930;2024-02-26T08:38:00;5.47;;;2.58;;
36205;SDS011;22242;48.796;9.930;2024-02-26T08:40:29;5.05;;;3.00;;
36205;SDS011;22242;48.796;9.930;2024-02-26T08:42:56;6.20;;;3.30;;
36205;SDS011;22242;48.796;9.930;2024-02-26T08:45:22;4.68;;;2.83;;
36205;SDS011;22242;48.796;9.930;2024-02-26T08:47:49;5.38;;;2.67;;
36205;SDS011;22242;48.796;9.930;2024-02-26T08:50:16;6.00;;;2.67;;
36205;SDS011;22242;48.796;9.930;2024-02-26T08:52:43;4.40;;;3.05;;
36205;SDS011;22242;48.796;9.930;2024-02-26T08:55:13;7.28;;;3.88;;
36205;SDS011;22242;48.796;9.930;2024-02-26T08:57:42;9.35;;;4.80;;
36205;SDS011;22242;48.796;9.930;2024-02-26T09:00:09;3.80;;;2.90;;
36205;SDS011;22242;48.796;9.930;2024-02-26T09:02:37;4.80;;;3.17;;
36205;SDS011;22242;48.796;9.930;2024-02-26T09:05:05;5.72;;;2.70;;
36205;SDS011;22242;48.796;9.930;2024-02-26T09:07:32;4.30;;;2.80;;
36205;SDS011;22242;48.796;9.930;2024-02-26T09:09:59;5.60;;;3.08;;
36205;SDS011;22242;48.796;9.930;2024-02-26T09:12:25;4.10;;;2.58;;
36205;SDS011;22242;48.796;9.930;2024-02-26T09:14:54;6.68;;;3.10;;
36205;SDS011;22242;48.796;9.930;2024-02-26T09:17:22;5.30;;;3.33;;
36205;SDS011;22242;48.796;9.930;2024-02-26T09:19:49;4.63;;;3.80;;
36205;SDS011;22242;48.796;9.930;2024-02-26T09:22:16;5.20;;;3.92;;
36205;SDS011;22242;48.796;9.930;2024-02-26T09:24:43;5.18;;;2.97;;
36205;SDS011;22242;48.796;9.930;2024-02-26T09:27:09;4.18;;;3.78;;
36205;SDS011;22242;48.796;9.930;2024-02-26T09:29:36;7.47;;;5.82;;
36205;SDS011;22242;48.796;9.930;2024-02-26T09:32:05;4.10;;;3.53;;
36205;SDS011;22242;48.796;9.930;2024-02-26T09:34:32;5.50;;;2.97;;
36205;SDS011;22242;48.796;9.930;2024-02-26T09:36:59;3.40;;;3.08;;
36205;SDS011;22242;48.796;9.930;2024-02-26T09:39:26;4.50;;;2.80;;
36205;SDS011;22242;48.796;9.930;2024-02-26T09:41:53;7.07;;;3.03;;
36205;SDS011;22242;48.796;9.930;2024-02-26T09:44:20;6.03;;;3.05;;
36205;SDS011;22242;48.796;9.930;2024-02-26T09:46:47;4.55;;;2.95;;
36205;SDS011;22242;48.796;9.930;2024-02-26T09:49:16;4.47;;;2.90;;
36205;SDS011;22242;48.796;9.930;2024-02-26T09:51:44;4.15;;;2.65;;
36205;SDS011;22242;48.796;9.930;2024-02-26T09:54:13;4.07;;;3.05;;
36205;SDS011;22242;48.796;9.930;2024-02-26T09:56:43;5.38;;;2.78;;
36205;SDS011;22242;48.796;9.930;2024-02-26T09:59:13;3.28;;;2.58;;
36205;SDS011;22242;48.796;9.930;2024-02-26T10:01:44;3.35;;;2.53;;
36205;SDS011;22242;48.796;9.930;2024-02-26T10:04:12;4.57;;;2.63;;
36205;SDS011;22242;48.796;9.930;2024-02-26T10:06:41;3.28;;;2.25;;
36205;SDS011;22242;48.796;9.930;2024-02-26T10:09:09;5.05;;;2.08;;
36205;SDS011;22242;48.796;9.930;2024-02-26T10:11:37;2.47;;;2.13;;
36205;SDS011;22242;48.796;9.930;2024-02-26T10:14:04;4.35;;;2.53;;
36205;SDS011;22242;48.796;9.930;2024-02-26T10:16:31;3.15;;;2.45;;
36205;SDS011;22242;48.796;9.930;2024-02-26T10:18:59;2.75;;;2.30;;
36205;SDS011;22242;48.796;9.930;2024-02-26T10:21:26;3.65;;;2.40;;
36205;SDS011;22242;48.796;9.930;2024-02-26T10:23:54;7.28;;;2.30;;
36205;SDS011;22242;48.796;9.930;2024-02-26T10:26:21;2.75;;;2.47;;
36205;SDS011;22242;48.796;9.930;2024-02-26T10:28:48;6.55;;;5.88;;
36205;SDS011;22242;48.796;9.930;2024-02-26T10:31:15;5.28;;;4.05;;
36205;SDS011;22242;48.796;9.930;2024-02-26T10:33:42;6.75;;;6.03;;
36205;SDS011;22242;48.796;9.930;2024-02-26T10:36:10;7.05;;;6.32;;
36205;SDS011;22242;48.796;9.930;2024-02-26T10:38:37;5.47;;;3.50;;
36205;SDS011;22242;48.796;9.930;2024-02-26T10:41:05;5.47;;;2.88;;
36205;SDS011;22242;48.796;9.930;2024-02-26T10:43:33;2.78;;;2.40;;
36205;SDS011;22242;48.796;9.930;2024-02-26T10:46:00;4.20;;;2.55;;
36205;SDS011;22242;48.796;9.930;2024-02-26T10:48:27;6.38;;;2.70;;
36205;SDS011;22242;48.796;9.930;2024-02-26T10:50:54;3.42;;;2.50;;
36205;SDS011;22242;48.796;9.930;2024-02-26T10:53:22;3.83;;;2.53;;
36205;SDS011;22242;48.796;9.930;2024-02-26T10:55:52;2.78;;;2.42;;
36205;SDS011;22242;48.796;9.930;2024-02-26T10:58:28;2.25;;;1.77;;
36205;SDS011;22242;48.796;9.930;2024-02-26T11:00:56;3.25;;;2.50;;
36205;SDS011;22242;48.796;9.930;2024-02-26T11:03:24;1.75;;;1.60;;
36205;SDS011;22242;48.796;9.930;2024-02-26T11:05:51;1.88;;;1.65;;
36205;SDS011;22242;48.796;9.930;2024-02-26T11:08:19;1.88;;;1.50;;
36205;SDS011;22242;48.796;9.930;2024-02-26T11:10:47;2.13;;;1.70;;
36205;SDS011;22242;48.796;9.930;2024-02-26T11:13:14;1.50;;;1.30;;
36205;SDS011;22242;48.796;9.930;2024-02-26T11:15:45;3.35;;;1.33;;
36205;SDS011;22242;48.796;9.930;2024-02-26T11:18:13;2.90;;;2.13;;
36205;SDS011;22242;48.796;9.930;2024-02-26T11:20:41;2.65;;;2.30;;
36205;SDS011;22242;48.796;9.930;2024-02-26T11:23:09;3.35;;;2.17;;
36205;SDS011;22242;48.796;9.930;2024-02-26T11:25:36;3.65;;;2.40;;
36205;SDS011;22242;48.796;9.930;2024-02-26T11:28:05;3.65;;;2.38;;
36205;SDS011;22242;48.796;9.930;2024-02-26T11:30:35;6.63;;;2.67;;
36205;SDS011;22242;48.796;9.930;2024-02-26T11:33:08;4.57;;;2.60;;
36205;SDS011;22242;48.796;9.930;2024-02-26T11:35:37;4.78;;;2.70;;
36205;SDS011;22242;48.796;9.930;2024-02-26T11:38:04;3.97;;;2.40;;
36205;SDS011;22242;48.796;9.930;2024-02-26T11:40:32;4.40;;;2.78;;
36205;SDS011;22242;48.796;9.930;2024-02-26T11:43:04;5.70;;;3.03;;
36205;SDS011;22242;48.796;9.930;2024-02-26T11:45:50;3.95;;;3.00;;
36205;SDS011;22242;48.796;9.930;2024-02-26T11:48:21;6.43;;;2.53;;
36205;SDS011;22242;48.796;9.930;2024-02-26T11:50:50;4.25;;;2.60;;
36205;SDS011;22242;48.796;9.930;2024-02-26T11:53:24;3.33;;;2.75;;
36205;SDS011;22242;48.796;9.930;2024-02-26T11:58:47;5.28;;;3.33;;
36205;SDS011;22242;48.796;9.930;2024-02-26T12:04:21;3.95;;;3.00;;
36205;SDS011;22242;48.796;9.930;2024-02-26T12:06:51;8.38;;;3.92;;
36205;SDS011;22242;48.796;9.930;2024-02-26T12:09:32;6.78;;;3.53;;
36205;SDS011;22242;48.796;9.930;2024-02-26T12:12:00;5.85;;;3.50;;
36205;SDS011;22242;48.796;9.930;2024-02-26T12:14:28;6.03;;;3.50;;
36205;SDS011;22242;48.796;9.930;2024-02-26T12:16:55;6.72;;;3.28;;
36205;SDS011;22242;48.796;9.930;2024-02-26T12:19:24;5.40;;;3.53;;
36205;SDS011;22242;48.796;9.930;2024-02-26T12:21:51;5.65;;;3.03;;
36205;SDS011;22242;48.796;9.930;2024-02-26T12:24:20;7.30;;;3.58;;
36205;SDS011;22242;48.796;9.930;2024-02-26T12:26:47;5.97;;;3.50;;
36205;SDS011;22242;48.796;9.930;2024-02-26T12:29:13;6.43;;;3.95;;
36205;SDS011;22242;48.796;9.930;2024-02-26T12:31:40;7.05;;;3.92;;
36205;SDS011;22242;48.796;9.930;2024-02-26T12:34:08;6.43;;;3.90;;
36205;SDS011;22242;48.796;9.930;2024-02-26T12:36:36;6.05;;;4.47;;
36205;SDS011;22242;48.796;9.930;2024-02-26T12:39:03;5.88;;;3.75;;
36205;SDS011;22242;48.796;9.930;2024-02-26T12:41:31;5.50;;;3.92;;
36205;SDS011;22242;48.796;9.930;2024-02-26T12:43:59;5.13;;;3.53;;
36205;SDS011;22242;48.796;9.930;2024-02-26T12:46:26;7.03;;;4.13;;
36205;SDS011;22242;48.796;9.930;2024-02-26T12:48:54;5.78;;;4.55;;
36205;SDS011;22242;48.796;9.930;2024-02-26T12:51:23;6.15;;;4.35;;
36205;SDS011;22242;48.796;9.930;2024-02-26T12:53:52;5.72;;;4.20;;
36205;SDS011;22242;48.796;9.930;2024-02-26T12:56:20;6.60;;;4.47;;
36205;SDS011;22242;48.796;9.930;2024-02-26T12:58:48;7.72;;;4.43;;
36205;SDS011;22242;48.796;9.930;2024-02-26T13:01:17;12.75;;;5.55;;
36205;SDS011;22242;48.796;9.930;2024-02-26T13:03:46;9.32;;;5.03;;
36205;SDS011;22242;48.796;9.930;2024-02-26T13:06:13;9.20;;;6.18;;
36205;SDS011;22242;48.796;9.930;2024-02-26T13:08:40;9.00;;;5.35;;
36205;SDS011;22242;48.796;9.930;2024-02-26T13:11:09;9.27;;;5.70;;
36205;SDS011;22242;48.796;9.930;2024-02-26T13:13:36;7.68;;;4.38;;
36205;SDS011;22242;48.796;9.930;2024-02-26T13:16:03;6.78;;;4.93;;
36205;SDS011;22242;48.796;9.930;2024-02-26T13:18:33;9.85;;;5.93;;
36205;SDS011;22242;48.796;9.930;2024-02-26T13:21:08;9.60;;;6.28;;
36205;SDS011;22242;48.796;9.930;2024-02-26T13:23:36;6.78;;;5.30;;
36205;SDS011;22242;48.796;9.930;2024-02-26T13:26:03;14.55;;;5.50;;
36205;SDS011;22242;48.796;9.930;2024-02-26T13:28:31;9.50;;;4.90;;
36205;SDS011;22242;48.796;9.930;2024-02-26T13:30:58;8.60;;;4.93;;
36205;SDS011;22242;48.796;9.930;2024-02-26T13:33:28;8.65;;;5.25;;
36205;SDS011;22242;48.796;9.930;2024-02-26T13:35:56;11.25;;;6.18;;
36205;SDS011;22242;48.796;9.930;2024-02-26T13:38:23;23.02;;;12.05;;
36205;SDS011;22242;48.796;9.930;2024-02-26T13:40:51;14.13;;;8.60;;
36205;SDS011;22242;48.796;9.930;2024-02-26T13:43:18;11.88;;;7.30;;
36205;SDS011;22242;48.796;9.930;2024-02-26T13:45:47;17.20;;;9.82;;
36205;SDS011;22242;48.796;9.930;2024-02-26T13:48:14;11.43;;;6.38;;
36205;SDS011;22242;48.796;9.930;2024-02-26T13:50:41;14.52;;;8.38;;
36205;SDS011;22242;48.796;9.930;2024-02-26T13:53:10;14.57;;;7.80;;
36205;SDS011;22242;48.796;9.930;2024-02-26T13:55:37;45.25;;;19.45;;
36205;SDS011;22242;48.796;9.930;2024-02-26T13:58:05;30.83;;;13.77;;
36205;SDS011;22242;48.796;9.930;2024-02-26T14:00:32;15.88;;;8.43;;
36205;SDS011;22242;48.796;9.930;2024-02-26T14:03:01;15.43;;;7.85;;
36205;SDS011;22242;48.796;9.930;2024-02-26T14:05:28;12.63;;;6.68;;
36205;SDS011;22242;48.796;9.930;2024-02-26T14:07:55;13.75;;;6.65;;
36205;SDS011;22242;48.796;9.930;2024-02-26T14:10:22;16.33;;;7.45;;
36205;SDS011;22242;48.796;9.930;2024-02-26T14:12:49;13.52;;;6.50;;
36205;SDS011;22242;48.796;9.930;2024-02-26T14:15:16;10.05;;;5.38;;
36205;SDS011;22242;48.796;9.930;2024-02-26T14:17:43;9.82;;;5.43;;
36205;SDS011;22242;48.796;9.930;2024-02-26T14:20:12;13.27;;;5.75;;
36205;SDS011;22242;48.796;9.930;2024-02-26T14:22:39;8.43;;;5.40;;
36205;SDS011;22242;48.796;9.930;2024-02-26T14:25:05;7.63;;;4.82;;
36205;SDS011;22242;48.796;9.930;2024-02-26T14:27:34;8.27;;;4.95;;
36205;SDS011;22242;48.796;9.930;2024-02-26T14:30:01;10.60;;;5.82;;
36205;SDS011;22242;48.796;9.930;2024-02-26T14:32:28;10.88;;;5.90;;
36205;SDS011;22242;48.796;9.930;2024-02-26T14:34:56;11.93;;;6.22;;
36205;SDS011;22242;48.796;9.930;2024-02-26T14:37:24;9.00;;;5.65;;
36205;SDS011;22242;48.796;9.930;2024-02-26T14:39:51;8.68;;;4.90;;
36205;SDS011;22242;48.796;9.930;2024-02-26T14:42:18;10.13;;;5.47;;
36205;SDS011;22242;48.796;9.930;2024-02-26T14:44:45;10.13;;;5.30;;
36205;SDS011;22242;48.796;9.930;2024-02-26T14:47:12;3.35;;;2.55;;
36205;SDS011;22242;48.796;9.930;2024-02-26T14:49:39;3.45;;;2.40;;
36205;SDS011;22242;48.796;9.930;2024-02-26T14:52:06;2.50;;;2.17;;
36205;SDS011;22242;48.796;9.930;2024-02-26T14:54:34;5.10;;;2.88;;
36205;SDS011;22242;48.796;9.930;2024-02-26T14:57:04;5.70;;;3.78;;
36205;SDS011;22242;48.796;9.930;2024-02-26T14:59:31;3.55;;;2.20;;